sensor_id;sensor_type;location;lat;lon;timestamp;temperature;humidity
75985;DHT22;65033;44.660;37.758;2023-02-22T00:00:49;28.17;31.98
75985;DHT22;65033;44.660;37.758;2023-02-22T00:01:53;28.17;31.97
75985;DHT22;65033;44.660;37.758;2023-02-22T00:03:16;28.17;31.93
75985;DHT22;65033;44.660;37.758;2023-02-22T00:04:20;28.17;31.94
75985;DHT22;65033;44.660;37.758;2023-02-22T00:05:24;28.16;31.92
75985;DHT22;65033;44.660;37.758;2023-02-22T00:06:28;28.15;31.89
75985;DHT22;65033;44.660;37.758;2023-02-22T00:07:33;28.16;31.88
75985;DHT22;65033;44.660;37.758;2023-02-22T00:08:37;28.16;31.86
75985;DHT22;65033;44.660;37.758;2023-02-22T00:09:41;28.15;31.80
75985;DHT22;65033;44.660;37.758;2023-02-22T00:10:44;28.16;31.80
75985;DHT22;65033;44.660;37.758;2023-02-22T00:11:47;28.15;31.80
75985;DHT22;65033;44.660;37.758;2023-02-22T00:12:52;28.14;31.77
75985;DHT22;65033;44.660;37.758;2023-02-22T00:13:56;28.14;31.76
75985;DHT22;65033;44.660;37.758;2023-02-22T00:14:59;28.15;31.73
75985;DHT22;65033;44.660;37.758;2023-02-22T00:16:04;28.14;31.73
75985;DHT22;65033;44.660;37.758;2023-02-22T00:17:08;28.15;31.70
75985;DHT22;65033;44.660;37.758;2023-02-22T00:18:17;28.13;31.65
75985;DHT22;65033;44.660;37.758;2023-02-22T00:19:21;28.14;31.65
75985;DHT22;65033;44.660;37.758;2023-02-22T00:20:24;28.13;31.65
75985;DHT22;65033;44.660;37.758;2023-02-22T00:21:29;28.13;31.61
75985;DHT22;65033;44.660;37.758;2023-02-22T00:22:33;28.13;31.58
75985;DHT22;65033;44.660;37.758;2023-02-22T00:23:39;28.13;31.52
75985;DHT22;65033;44.660;37.758;2023-02-22T00:24:45;28.14;31.55
75985;DHT22;65033;44.660;37.758;2023-02-22T00:25:49;28.13;31.52
75985;DHT22;65033;44.660;37.758;2023-02-22T00:26:54;28.13;31.51
75985;DHT22;65033;44.660;37.758;2023-02-22T00:27:59;28.13;31.52
75985;DHT22;65033;44.660;37.758;2023-02-22T00:29:03;28.12;31.51
75985;DHT22;65033;44.660;37.758;2023-02-22T00:30:06;28.12;31.50
75985;DHT22;65033;44.660;37.758;2023-02-22T00:31:11;28.12;31.49
75985;DHT22;65033;44.660;37.758;2023-02-22T00:32:15;28.12;31.45
75985;DHT22;65033;44.660;37.758;2023-02-22T00:33:20;28.11;31.43
75985;DHT22;65033;44.660;37.758;2023-02-22T00:34:24;28.10;31.44
75985;DHT22;65033;44.660;37.758;2023-02-22T00:35:28;28.10;31.41
75985;DHT22;65033;44.660;37.758;2023-02-22T00:36:32;28.11;31.38
75985;DHT22;65033;44.660;37.758;2023-02-22T00:37:36;28.10;31.35
75985;DHT22;65033;44.660;37.758;2023-02-22T00:38:43;28.11;31.32
75985;DHT22;65033;44.660;37.758;2023-02-22T00:39:47;28.10;31.32
75985;DHT22;65033;44.660;37.758;2023-02-22T00:40:51;28.11;31.35
75985;DHT22;65033;44.660;37.758;2023-02-22T00:41:54;28.10;31.31
75985;DHT22;65033;44.660;37.758;2023-02-22T00:42:59;28.09;31.32
75985;DHT22;65033;44.660;37.758;2023-02-22T00:44:03;28.10;31.29
75985;DHT22;65033;44.660;37.758;2023-02-22T00:45:08;28.09;31.29
75985;DHT22;65033;44.660;37.758;2023-02-22T00:46:12;28.09;31.28
75985;DHT22;65033;44.660;37.758;2023-02-22T00:47:16;28.09;31.29
75985;DHT22;65033;44.660;37.758;2023-02-22T00:48:21;28.09;31.30
75985;DHT22;65033;44.660;37.758;2023-02-22T00:49:26;28.09;31.28
75985;DHT22;65033;44.660;37.758;2023-02-22T00:50:31;28.09;31.27
75985;DHT22;65033;44.660;37.758;2023-02-22T00:51:35;28.08;31.25
75985;DHT22;65033;44.660;37.758;2023-02-22T00:52:39;28.08;31.22
75985;DHT22;65033;44.660;37.758;2023-02-22T00:53:42;28.09;31.20
75985;DHT22;65033;44.660;37.758;2023-02-22T00:54:46;28.08;31.18
75985;DHT22;65033;44.660;37.758;2023-02-22T00:55:50;28.06;31.15
75985;DHT22;65033;44.660;37.758;2023-02-22T00:56:53;28.06;31.14
75985;DHT22;65033;44.660;37.758;2023-02-22T00:57:57;28.08;31.10
75985;DHT22;65033;44.660;37.758;2023-02-22T00:59:01;28.05;31.12
75985;DHT22;65033;44.660;37.758;2023-02-22T01:00:09;28.08;31.06
75985;DHT22;65033;44.660;37.758;2023-02-22T01:01:18;28.08;31.05
75985;DHT22;65033;44.660;37.758;2023-02-22T01:02:22;28.08;31.01
75985;DHT22;65033;44.660;37.758;2023-02-22T01:03:27;28.06;31.02
75985;DHT22;65033;44.660;37.758;2023-02-22T01:04:31;28.05;31.01
75985;DHT22;65033;44.660;37.758;2023-02-22T01:05:34;28.06;30.99
75985;DHT22;65033;44.660;37.758;2023-02-22T01:06:40;28.06;30.96
75985;DHT22;65033;44.660;37.758;2023-02-22T01:07:43;28.05;30.95
75985;DHT22;65033;44.660;37.758;2023-02-22T01:08:47;28.05;30.93
75985;DHT22;65033;44.660;37.758;2023-02-22T01:09:52;28.04;30.91
75985;DHT22;65033;44.660;37.758;2023-02-22T01:10:55;28.04;30.90
75985;DHT22;65033;44.660;37.758;2023-02-22T01:12:01;28.04;30.90
75985;DHT22;65033;44.660;37.758;2023-02-22T01:13:06;28.05;30.88
75985;DHT22;65033;44.660;37.758;2023-02-22T01:14:14;28.04;30.86
75985;DHT22;65033;44.660;37.758;2023-02-22T01:15:19;28.04;30.84
75985;DHT22;65033;44.660;37.758;2023-02-22T01:16:25;28.04;30.80
75985;DHT22;65033;44.660;37.758;2023-02-22T01:17:30;28.05;30.82
75985;DHT22;65033;44.660;37.758;2023-02-22T01:18:36;28.04;30.76
75985;DHT22;65033;44.660;37.758;2023-02-22T01:19:39;28.03;30.72
75985;DHT22;65033;44.660;37.758;2023-02-22T01:20:45;28.04;30.72
75985;DHT22;65033;44.660;37.758;2023-02-22T01:21:50;28.02;30.71
75985;DHT22;65033;44.660;37.758;2023-02-22T01:22:55;28.03;30.71
75985;DHT22;65033;44.660;37.758;2023-02-22T01:23:59;28.02;30.70
75985;DHT22;65033;44.660;37.758;2023-02-22T01:25:03;28.01;30.65
75985;DHT22;65033;44.660;37.758;2023-02-22T01:26:09;28.02;30.66
75985;DHT22;65033;44.660;37.758;2023-02-22T01:27:13;28.03;30.64
75985;DHT22;65033;44.660;37.758;2023-02-22T01:28:17;28.02;30.60
75985;DHT22;65033;44.660;37.758;2023-02-22T01:29:20;28.02;30.64
75985;DHT22;65033;44.660;37.758;2023-02-22T01:30:26;28.02;30.60
75985;DHT22;65033;44.660;37.758;2023-02-22T01:31:31;28.02;30.57
75985;DHT22;65033;44.660;37.758;2023-02-22T01:32:35;28.02;30.58
75985;DHT22;65033;44.660;37.758;2023-02-22T01:33:41;28.01;30.54
75985;DHT22;65033;44.660;37.758;2023-02-22T01:34:44;28.02;30.54
75985;DHT22;65033;44.660;37.758;2023-02-22T01:35:48;28.02;30.51
75985;DHT22;65033;44.660;37.758;2023-02-22T01:36:53;28.02;30.47
75985;DHT22;65033;44.660;37.758;2023-02-22T01:37:56;28.01;30.48
75985;DHT22;65033;44.660;37.758;2023-02-22T01:39:00;28.00;30.46
75985;DHT22;65033;44.660;37.758;2023-02-22T01:40:06;28.01;30.46
75985;DHT22;65033;44.660;37.758;2023-02-22T01:41:10;27.99;30.42
75985;DHT22;65033;44.660;37.758;2023-02-22T01:42:14;28.00;30.40
75985;DHT22;65033;44.660;37.758;2023-02-22T01:43:20;27.98;30.39
75985;DHT22;65033;44.660;37.758;2023-02-22T01:44:27;28.00;30.35
75985;DHT22;65033;44.660;37.758;2023-02-22T01:45:48;28.00;30.28
75985;DHT22;65033;44.660;37.758;2023-02-22T01:46:52;27.98;30.32
75985;DHT22;65033;44.660;37.758;2023-02-22T01:47:59;27.99;30.31
75985;DHT22;65033;44.660;37.758;2023-02-22T01:49:05;27.99;30.30
75985;DHT22;65033;44.660;37.758;2023-02-22T01:50:08;27.98;30.32
75985;DHT22;65033;44.660;37.758;2023-02-22T01:51:16;27.96;30.30
75985;DHT22;65033;44.660;37.758;2023-02-22T01:52:20;27.98;30.32
75985;DHT22;65033;44.660;37.758;2023-02-22T01:53:28;27.99;30.25
75985;DHT22;65033;44.660;37.758;2023-02-22T01:54:36;27.98;30.29
75985;DHT22;65033;44.660;37.758;2023-02-22T01:55:42;27.99;30.25
75985;DHT22;65033;44.660;37.758;2023-02-22T01:56:47;27.97;30.24
75985;DHT22;65033;44.660;37.758;2023-02-22T01:57:54;27.98;30.23
75985;DHT22;65033;44.660;37.758;2023-02-22T01:59:00;27.98;30.22
75985;DHT22;65033;44.660;37.758;2023-02-22T02:00:08;27.97;30.22
75985;DHT22;65033;44.660;37.758;2023-02-22T02:01:17;27.98;30.20
75985;DHT22;65033;44.660;37.758;2023-02-22T02:02:21;27.97;30.22
75985;DHT22;65033;44.660;37.758;2023-02-22T02:03:30;27.98;30.19
75985;DHT22;65033;44.660;37.758;2023-02-22T02:04:37;27.97;30.16
75985;DHT22;65033;44.660;37.758;2023-02-22T02:05:41;27.98;30.16
75985;DHT22;65033;44.660;37.758;2023-02-22T02:06:45;27.99;30.15
75985;DHT22;65033;44.660;37.758;2023-02-22T02:07:50;27.96;30.15
75985;DHT22;65033;44.660;37.758;2023-02-22T02:08:59;27.98;30.12
75985;DHT22;65033;44.660;37.758;2023-02-22T02:10:11;27.97;30.12
75985;DHT22;65033;44.660;37.758;2023-02-22T02:11:19;27.97;30.10
75985;DHT22;65033;44.660;37.758;2023-02-22T02:12:25;27.95;30.10
75985;DHT22;65033;44.660;37.758;2023-02-22T02:13:29;27.96;30.12
75985;DHT22;65033;44.660;37.758;2023-02-22T02:14:33;27.95;30.13
75985;DHT22;65033;44.660;37.758;2023-02-22T02:15:42;27.95;30.10
75985;DHT22;65033;44.660;37.758;2023-02-22T02:16:48;27.94;30.09
75985;DHT22;65033;44.660;37.758;2023-02-22T02:17:54;27.96;30.06
75985;DHT22;65033;44.660;37.758;2023-02-22T02:18:59;27.95;30.08
75985;DHT22;65033;44.660;37.758;2023-02-22T02:20:11;27.94;30.04
75985;DHT22;65033;44.660;37.758;2023-02-22T02:21:53;27.96;30.02
75985;DHT22;65033;44.660;37.758;2023-02-22T02:23:16;27.95;30.00
75985;DHT22;65033;44.660;37.758;2023-02-22T02:24:52;27.94;29.99
75985;DHT22;65033;44.660;37.758;2023-02-22T02:27:53;27.91;30.03
75985;DHT22;65033;44.660;37.758;2023-02-22T02:29:34;27.94;30.03
75985;DHT22;65033;44.660;37.758;2023-02-22T02:31:05;27.94;29.97
75985;DHT22;65033;44.660;37.758;2023-02-22T02:32:33;27.93;29.98
75985;DHT22;65033;44.660;37.758;2023-02-22T02:33:42;27.91;30.00
75985;DHT22;65033;44.660;37.758;2023-02-22T02:34:49;27.91;30.03
75985;DHT22;65033;44.660;37.758;2023-02-22T02:36:02;27.91;29.99
75985;DHT22;65033;44.660;37.758;2023-02-22T02:37:09;27.90;29.97
75985;DHT22;65033;44.660;37.758;2023-02-22T02:38:22;27.93;30.00
75985;DHT22;65033;44.660;37.758;2023-02-22T02:39:34;27.91;30.03
75985;DHT22;65033;44.660;37.758;2023-02-22T02:40:44;27.93;30.07
75985;DHT22;65033;44.660;37.758;2023-02-22T02:41:51;27.93;30.10
75985;DHT22;65033;44.660;37.758;2023-02-22T02:43:00;27.93;30.14
75985;DHT22;65033;44.660;37.758;2023-02-22T02:44:11;27.93;30.15
75985;DHT22;65033;44.660;37.758;2023-02-22T02:45:19;27.93;30.13
75985;DHT22;65033;44.660;37.758;2023-02-22T02:46:30;27.93;30.13
75985;DHT22;65033;44.660;37.758;2023-02-22T02:47:38;27.93;30.13
75985;DHT22;65033;44.660;37.758;2023-02-22T02:48:49;27.91;30.10
75985;DHT22;65033;44.660;37.758;2023-02-22T02:50:05;27.91;30.13
75985;DHT22;65033;44.660;37.758;2023-02-22T02:51:11;27.90;30.14
75985;DHT22;65033;44.660;37.758;2023-02-22T02:52:18;27.90;30.16
75985;DHT22;65033;44.660;37.758;2023-02-22T02:53:26;27.90;30.14
75985;DHT22;65033;44.660;37.758;2023-02-22T02:54:31;27.91;30.12
75985;DHT22;65033;44.660;37.758;2023-02-22T02:55:36;27.93;30.13
75985;DHT22;65033;44.660;37.758;2023-02-22T02:56:42;27.93;30.13
75985;DHT22;65033;44.660;37.758;2023-02-22T02:57:45;27.90;30.15
75985;DHT22;65033;44.660;37.758;2023-02-22T02:58:50;27.91;30.15
75985;DHT22;65033;44.660;37.758;2023-02-22T02:59:57;27.89;30.16
75985;DHT22;65033;44.660;37.758;2023-02-22T03:01:02;27.89;30.15
75985;DHT22;65033;44.660;37.758;2023-02-22T03:02:22;27.90;30.14
75985;DHT22;65033;44.660;37.758;2023-02-22T03:03:49;27.89;30.19
75985;DHT22;65033;44.660;37.758;2023-02-22T03:05:10;27.90;30.19
75985;DHT22;65033;44.660;37.758;2023-02-22T03:06:38;27.90;30.21
75985;DHT22;65033;44.660;37.758;2023-02-22T03:07:51;27.90;30.25
75985;DHT22;65033;44.660;37.758;2023-02-22T03:09:04;27.89;30.22
75985;DHT22;65033;44.660;37.758;2023-02-22T03:10:19;27.89;30.22
75985;DHT22;65033;44.660;37.758;2023-02-22T03:11:28;27.88;30.22
75985;DHT22;65033;44.660;37.758;2023-02-22T03:12:43;27.88;30.22
75985;DHT22;65033;44.660;37.758;2023-02-22T03:13:53;27.88;30.21
75985;DHT22;65033;44.660;37.758;2023-02-22T03:15:10;27.88;30.24
75985;DHT22;65033;44.660;37.758;2023-02-22T03:16:20;27.89;30.25
75985;DHT22;65033;44.660;37.758;2023-02-22T03:17:39;27.88;30.23
75985;DHT22;65033;44.660;37.758;2023-02-22T03:18:49;27.87;30.22
75985;DHT22;65033;44.660;37.758;2023-02-22T03:19:59;27.88;30.24
75985;DHT22;65033;44.660;37.758;2023-02-22T03:21:10;27.87;30.22
75985;DHT22;65033;44.660;37.758;2023-02-22T03:22:20;27.86;30.25
75985;DHT22;65033;44.660;37.758;2023-02-22T03:23:30;27.88;30.26
75985;DHT22;65033;44.660;37.758;2023-02-22T03:24:38;27.87;30.25
75985;DHT22;65033;44.660;37.758;2023-02-22T03:25:49;27.86;30.27
75985;DHT22;65033;44.660;37.758;2023-02-22T03:26:57;27.87;30.29
75985;DHT22;65033;44.660;37.758;2023-02-22T03:28:09;27.86;30.26
75985;DHT22;65033;44.660;37.758;2023-02-22T03:29:16;27.86;30.25
75985;DHT22;65033;44.660;37.758;2023-02-22T03:30:24;27.86;30.25
75985;DHT22;65033;44.660;37.758;2023-02-22T03:31:32;27.86;30.24
75985;DHT22;65033;44.660;37.758;2023-02-22T03:32:43;27.85;30.22
75985;DHT22;65033;44.660;37.758;2023-02-22T03:33:52;27.86;29.90
75985;DHT22;65033;44.660;37.758;2023-02-22T03:34:57;27.86;29.69
75985;DHT22;65033;44.660;37.758;2023-02-22T03:36:09;27.86;30.13
75985;DHT22;65033;44.660;37.758;2023-02-22T03:37:17;27.83;30.22
75985;DHT22;65033;44.660;37.758;2023-02-22T03:38:23;27.84;30.20
75985;DHT22;65033;44.660;37.758;2023-02-22T03:39:30;27.84;30.19
75985;DHT22;65033;44.660;37.758;2023-02-22T03:40:36;27.82;30.18
75985;DHT22;65033;44.660;37.758;2023-02-22T03:41:44;27.83;30.19
75985;DHT22;65033;44.660;37.758;2023-02-22T03:42:53;27.82;30.15
75985;DHT22;65033;44.660;37.758;2023-02-22T03:44:02;27.83;30.14
75985;DHT22;65033;44.660;37.758;2023-02-22T03:45:08;27.83;30.13
75985;DHT22;65033;44.660;37.758;2023-02-22T03:46:14;27.83;30.14
75985;DHT22;65033;44.660;37.758;2023-02-22T03:47:21;27.82;30.10
75985;DHT22;65033;44.660;37.758;2023-02-22T03:48:31;27.83;30.03
75985;DHT22;65033;44.660;37.758;2023-02-22T03:49:46;27.82;30.03
75985;DHT22;65033;44.660;37.758;2023-02-22T03:50:51;27.84;30.02
75985;DHT22;65033;44.660;37.758;2023-02-22T03:51:56;27.82;30.03
75985;DHT22;65033;44.660;37.758;2023-02-22T03:53:01;27.83;29.97
75985;DHT22;65033;44.660;37.758;2023-02-22T03:54:08;27.83;29.98
75985;DHT22;65033;44.660;37.758;2023-02-22T03:55:21;27.82;29.95
75985;DHT22;65033;44.660;37.758;2023-02-22T03:56:30;27.83;29.93
75985;DHT22;65033;44.660;37.758;2023-02-22T03:57:40;27.82;29.96
75985;DHT22;65033;44.660;37.758;2023-02-22T03:58:48;27.83;30.03
75985;DHT22;65033;44.660;37.758;2023-02-22T03:59:53;27.82;30.16
75985;DHT22;65033;44.660;37.758;2023-02-22T04:00:57;27.84;30.19
75985;DHT22;65033;44.660;37.758;2023-02-22T04:02:02;27.83;30.20
75985;DHT22;65033;44.660;37.758;2023-02-22T04:03:06;27.82;30.24
75985;DHT22;65033;44.660;37.758;2023-02-22T04:04:09;27.82;30.25
75985;DHT22;65033;44.660;37.758;2023-02-22T04:05:15;27.83;30.28
75985;DHT22;65033;44.660;37.758;2023-02-22T04:06:19;27.83;30.25
75985;DHT22;65033;44.660;37.758;2023-02-22T04:07:24;27.81;30.24
75985;DHT22;65033;44.660;37.758;2023-02-22T04:08:27;27.83;30.22
75985;DHT22;65033;44.660;37.758;2023-02-22T04:09:32;27.84;30.22
75985;DHT22;65033;44.660;37.758;2023-02-22T04:10:35;27.83;30.22
75985;DHT22;65033;44.660;37.758;2023-02-22T04:11:40;27.84;30.21
75985;DHT22;65033;44.660;37.758;2023-02-22T04:12:43;27.84;30.19
75985;DHT22;65033;44.660;37.758;2023-02-22T04:13:48;27.84;30.18
75985;DHT22;65033;44.660;37.758;2023-02-22T04:14:51;27.84;30.13
75985;DHT22;65033;44.660;37.758;2023-02-22T04:15:54;27.82;30.15
75985;DHT22;65033;44.660;37.758;2023-02-22T04:16:58;27.84;30.14
75985;DHT22;65033;44.660;37.758;2023-02-22T04:18:01;27.83;30.13
75985;DHT22;65033;44.660;37.758;2023-02-22T04:19:05;27.84;30.13
75985;DHT22;65033;44.660;37.758;2023-02-22T04:20:10;27.83;30.16
75985;DHT22;65033;44.660;37.758;2023-02-22T04:21:32;27.82;30.13
75985;DHT22;65033;44.660;37.758;2023-02-22T04:22:36;27.83;30.11
75985;DHT22;65033;44.660;37.758;2023-02-22T04:23:40;27.83;30.15
75985;DHT22;65033;44.660;37.758;2023-02-22T04:24:43;27.83;30.17
75985;DHT22;65033;44.660;37.758;2023-02-22T04:25:47;27.82;30.20
75985;DHT22;65033;44.660;37.758;2023-02-22T04:26:52;27.82;30.25
75985;DHT22;65033;44.660;37.758;2023-02-22T04:27:58;27.82;30.29
75985;DHT22;65033;44.660;37.758;2023-02-22T04:29:17;27.84;30.20
75985;DHT22;65033;44.660;37.758;2023-02-22T04:30:21;27.82;30.22
75985;DHT22;65033;44.660;37.758;2023-02-22T04:31:25;27.84;30.28
75985;DHT22;65033;44.660;37.758;2023-02-22T04:32:31;27.84;30.29
75985;DHT22;65033;44.660;37.758;2023-02-22T04:33:34;27.84;30.35
75985;DHT22;65033;44.660;37.758;2023-02-22T04:34:38;27.83;30.40
75985;DHT22;65033;44.660;37.758;2023-02-22T04:35:42;27.84;30.43
75985;DHT22;65033;44.660;37.758;2023-02-22T04:36:46;27.83;30.48
75985;DHT22;65033;44.660;37.758;2023-02-22T04:37:51;27.84;30.52
75985;DHT22;65033;44.660;37.758;2023-02-22T04:38:54;27.84;30.55
75985;DHT22;65033;44.660;37.758;2023-02-22T04:39:57;27.84;30.57
75985;DHT22;65033;44.660;37.758;2023-02-22T04:41:04;27.86;30.61
75985;DHT22;65033;44.660;37.758;2023-02-22T04:42:07;27.86;30.64
75985;DHT22;65033;44.660;37.758;2023-02-22T04:43:10;27.85;30.65
75985;DHT22;65033;44.660;37.758;2023-02-22T04:44:15;27.86;30.67
75985;DHT22;65033;44.660;37.758;2023-02-22T04:45:18;27.85;30.68
75985;DHT22;65033;44.660;37.758;2023-02-22T04:46:22;27.86;30.67
75985;DHT22;65033;44.660;37.758;2023-02-22T04:47:27;27.86;30.71
75985;DHT22;65033;44.660;37.758;2023-02-22T04:48:31;27.85;30.71
75985;DHT22;65033;44.660;37.758;2023-02-22T04:49:34;27.85;30.69
75985;DHT22;65033;44.660;37.758;2023-02-22T04:50:41;27.86;30.70
75985;DHT22;65033;44.660;37.758;2023-02-22T04:51:45;27.85;30.71
75985;DHT22;65033;44.660;37.758;2023-02-22T04:52:49;27.85;30.73
75985;DHT22;65033;44.660;37.758;2023-02-22T04:53:53;27.86;30.70
75985;DHT22;65033;44.660;37.758;2023-02-22T04:54:56;27.87;30.69
75985;DHT22;65033;44.660;37.758;2023-02-22T04:56:00;27.87;30.69
75985;DHT22;65033;44.660;37.758;2023-02-22T04:57:03;27.87;30.72
75985;DHT22;65033;44.660;37.758;2023-02-22T04:58:08;27.88;30.75
75985;DHT22;65033;44.660;37.758;2023-02-22T04:59:13;27.89;30.76
75985;DHT22;65033;44.660;37.758;2023-02-22T05:00:20;27.87;30.79
75985;DHT22;65033;44.660;37.758;2023-02-22T05:01:30;27.87;30.83
75985;DHT22;65033;44.660;37.758;2023-02-22T05:02:33;27.89;30.80
75985;DHT22;65033;44.660;37.758;2023-02-22T05:03:37;27.88;30.06
75985;DHT22;65033;44.660;37.758;2023-02-22T05:04:40;27.87;29.78
75985;DHT22;65033;44.660;37.758;2023-02-22T05:05:44;27.86;29.85
75985;DHT22;65033;44.660;37.758;2023-02-22T05:06:49;27.88;29.92
75985;DHT22;65033;44.660;37.758;2023-02-22T05:07:54;27.86;30.14
75985;DHT22;65033;44.660;37.758;2023-02-22T05:08:58;27.87;30.30
75985;DHT22;65033;44.660;37.758;2023-02-22T05:10:01;27.86;30.42
75985;DHT22;65033;44.660;37.758;2023-02-22T05:11:05;27.87;30.44
75985;DHT22;65033;44.660;37.758;2023-02-22T05:12:08;27.88;30.35
75985;DHT22;65033;44.660;37.758;2023-02-22T05:13:12;27.88;30.30
75985;DHT22;65033;44.660;37.758;2023-02-22T05:14:15;27.87;30.27
75985;DHT22;65033;44.660;37.758;2023-02-22T05:15:21;27.88;30.17
75985;DHT22;65033;44.660;37.758;2023-02-22T05:16:24;27.88;30.13
75985;DHT22;65033;44.660;37.758;2023-02-22T05:17:28;27.89;30.09
75985;DHT22;65033;44.660;37.758;2023-02-22T05:18:32;27.91;30.22
75985;DHT22;65033;44.660;37.758;2023-02-22T05:19:35;27.91;30.39
75985;DHT22;65033;44.660;37.758;2023-02-22T05:20:39;27.93;30.22
75985;DHT22;65033;44.660;37.758;2023-02-22T05:21:42;27.93;30.05
75985;DHT22;65033;44.660;37.758;2023-02-22T05:22:47;27.94;30.03
75985;DHT22;65033;44.660;37.758;2023-02-22T05:23:51;27.93;30.54
75985;DHT22;65033;44.660;37.758;2023-02-22T05:24:54;27.96;30.41
75985;DHT22;65033;44.660;37.758;2023-02-22T05:25:59;27.97;30.54
75985;DHT22;65033;44.660;37.758;2023-02-22T05:27:03;27.98;30.37
75985;DHT22;65033;44.660;37.758;2023-02-22T05:28:10;28.00;29.93
75985;DHT22;65033;44.660;37.758;2023-02-22T05:29:14;28.02;30.13
75985;DHT22;65033;44.660;37.758;2023-02-22T05:30:18;28.03;31.06
75985;DHT22;65033;44.660;37.758;2023-02-22T05:31:22;28.06;31.33
75985;DHT22;65033;44.660;37.758;2023-02-22T05:32:25;28.09;31.18
75985;DHT22;65033;44.660;37.758;2023-02-22T05:33:30;28.12;31.14
75985;DHT22;65033;44.660;37.758;2023-02-22T05:34:33;28.13;31.11
75985;DHT22;65033;44.660;37.758;2023-02-22T05:35:37;28.14;31.10
75985;DHT22;65033;44.660;37.758;2023-02-22T05:36:41;28.17;31.09
75985;DHT22;65033;44.660;37.758;2023-02-22T05:37:44;28.19;31.04
75985;DHT22;65033;44.660;37.758;2023-02-22T05:38:49;28.20;31.03
75985;DHT22;65033;44.660;37.758;2023-02-22T05:39:52;28.23;31.18
75985;DHT22;65033;44.660;37.758;2023-02-22T05:40:57;28.26;30.95
75985;DHT22;65033;44.660;37.758;2023-02-22T05:42:01;28.27;30.94
75985;DHT22;65033;44.660;37.758;2023-02-22T05:43:04;28.29;30.83
75985;DHT22;65033;44.660;37.758;2023-02-22T05:44:08;28.29;30.83
75985;DHT22;65033;44.660;37.758;2023-02-22T05:45:12;28.30;30.77
75985;DHT22;65033;44.660;37.758;2023-02-22T05:46:16;28.33;30.76
75985;DHT22;65033;44.660;37.758;2023-02-22T05:47:19;28.35;30.70
75985;DHT22;65033;44.660;37.758;2023-02-22T05:48:23;28.37;30.71
75985;DHT22;65033;44.660;37.758;2023-02-22T05:49:26;28.38;30.65
75985;DHT22;65033;44.660;37.758;2023-02-22T05:50:30;28.40;30.64
75985;DHT22;65033;44.660;37.758;2023-02-22T05:51:35;28.41;30.66
75985;DHT22;65033;44.660;37.758;2023-02-22T05:52:38;28.42;30.66
75985;DHT22;65033;44.660;37.758;2023-02-22T05:53:42;28.43;30.74
75985;DHT22;65033;44.660;37.758;2023-02-22T05:54:47;28.44;30.74
75985;DHT22;65033;44.660;37.758;2023-02-22T05:55:51;28.44;30.74
75985;DHT22;65033;44.660;37.758;2023-02-22T05:56:54;28.46;30.80
75985;DHT22;65033;44.660;37.758;2023-02-22T05:57:57;28.47;30.74
75985;DHT22;65033;44.660;37.758;2023-02-22T05:59:01;28.48;30.82
75985;DHT22;65033;44.660;37.758;2023-02-22T06:00:06;28.48;30.82
75985;DHT22;65033;44.660;37.758;2023-02-22T06:01:18;28.49;30.77
75985;DHT22;65033;44.660;37.758;2023-02-22T06:02:22;28.49;30.77
75985;DHT22;65033;44.660;37.758;2023-02-22T06:03:25;28.50;30.80
75985;DHT22;65033;44.660;37.758;2023-02-22T06:04:28;28.53;30.83
75985;DHT22;65033;44.660;37.758;2023-02-22T06:05:33;28.54;30.74
75985;DHT22;65033;44.660;37.758;2023-02-22T06:06:36;28.54;30.74
75985;DHT22;65033;44.660;37.758;2023-02-22T06:07:40;28.56;30.75
75985;DHT22;65033;44.660;37.758;2023-02-22T06:08:43;28.56;30.74
75985;DHT22;65033;44.660;37.758;2023-02-22T06:09:48;28.57;30.80
75985;DHT22;65033;44.660;37.758;2023-02-22T06:10:52;28.57;30.82
75985;DHT22;65033;44.660;37.758;2023-02-22T06:11:55;28.58;30.85
75985;DHT22;65033;44.660;37.758;2023-02-22T06:12:59;28.59;30.83
75985;DHT22;65033;44.660;37.758;2023-02-22T06:14:03;28.60;30.83
75985;DHT22;65033;44.660;37.758;2023-02-22T06:15:07;28.60;30.61
75985;DHT22;65033;44.660;37.758;2023-02-22T06:16:10;28.60;30.00
75985;DHT22;65033;44.660;37.758;2023-02-22T06:17:14;28.61;30.17
75985;DHT22;65033;44.660;37.758;2023-02-22T06:18:18;28.61;30.48
75985;DHT22;65033;44.660;37.758;2023-02-22T06:19:21;28.62;30.49
75985;DHT22;65033;44.660;37.758;2023-02-22T06:20:26;28.62;30.61
75985;DHT22;65033;44.660;37.758;2023-02-22T06:21:29;28.64;30.69
75985;DHT22;65033;44.660;37.758;2023-02-22T06:22:33;28.64;30.81
75985;DHT22;65033;44.660;37.758;2023-02-22T06:23:36;28.67;30.81
75985;DHT22;65033;44.660;37.758;2023-02-22T06:24:40;28.69;30.90
75985;DHT22;65033;44.660;37.758;2023-02-22T06:25:45;28.69;30.95
75985;DHT22;65033;44.660;37.758;2023-02-22T06:26:54;28.72;31.05
75985;DHT22;65033;44.660;37.758;2023-02-22T06:27:58;28.73;31.29
75985;DHT22;65033;44.660;37.758;2023-02-22T06:29:01;28.73;31.12
75985;DHT22;65033;44.660;37.758;2023-02-22T06:30:09;28.75;31.43
75985;DHT22;65033;44.660;37.758;2023-02-22T06:31:15;28.77;31.24
75985;DHT22;65033;44.660;37.758;2023-02-22T06:32:18;28.79;31.39
75985;DHT22;65033;44.660;37.758;2023-02-22T06:33:22;28.80;31.47
75985;DHT22;65033;44.660;37.758;2023-02-22T06:34:25;28.80;31.55
75985;DHT22;65033;44.660;37.758;2023-02-22T06:35:29;28.83;31.56
75985;DHT22;65033;44.660;37.758;2023-02-22T06:36:32;28.83;31.65
75985;DHT22;65033;44.660;37.758;2023-02-22T06:37:36;28.84;31.64
75985;DHT22;65033;44.660;37.758;2023-02-22T06:38:40;28.86;31.77
75985;DHT22;65033;44.660;37.758;2023-02-22T06:39:44;28.87;31.85
75985;DHT22;65033;44.660;37.758;2023-02-22T06:40:49;28.88;31.80
75985;DHT22;65033;44.660;37.758;2023-02-22T06:41:53;28.90;31.64
75985;DHT22;65033;44.660;37.758;2023-02-22T06:42:58;28.91;31.71
75985;DHT22;65033;44.660;37.758;2023-02-22T06:44:02;28.92;31.61
75985;DHT22;65033;44.660;37.758;2023-02-22T06:45:06;28.94;31.55
75985;DHT22;65033;44.660;37.758;2023-02-22T06:46:10;28.95;31.67
75985;DHT22;65033;44.660;37.758;2023-02-22T06:47:14;28.98;31.48
75985;DHT22;65033;44.660;37.758;2023-02-22T06:48:17;29.00;31.80
75985;DHT22;65033;44.660;37.758;2023-02-22T06:49:21;29.01;31.41
75985;DHT22;65033;44.660;37.758;2023-02-22T06:50:26;29.03;31.59
75985;DHT22;65033;44.660;37.758;2023-02-22T06:51:35;29.03;31.24
75985;DHT22;65033;44.660;37.758;2023-02-22T06:52:41;29.05;31.19
75985;DHT22;65033;44.660;37.758;2023-02-22T06:53:44;29.07;31.15